createdAt,value
2023-02-02T00:01:01.110Z,16.75
2023-02-02T00:03:27.520Z,12.20
2023-02-02T00:05:54.363Z,14.98
2023-02-02T00:08:21.810Z,11.63
2023-02-02T00:10:48.616Z,12.90
2023-02-02T00:13:15.019Z,13.73
2023-02-02T00:15:41.483Z,9.70
2023-02-02T00:18:08.021Z,9.05
2023-02-02T00:20:37.203Z,12.20
2023-02-02T00:23:04.342Z,10.00
2023-02-02T00:25:30.809Z,9.00
2023-02-02T00:27:57.378Z,10.70
2023-02-02T00:30:23.878Z,9.77
2023-02-02T00:32:52.204Z,10.60
2023-02-02T00:35:19.648Z,9.73
2023-02-02T00:37:46.130Z,10.98
2023-02-02T00:40:12.679Z,11.25
2023-02-02T00:42:39.122Z,10.23
2023-02-02T00:45:18.486Z,13.18
2023-02-02T00:47:47.233Z,10.40
2023-02-02T00:50:21.936Z,11.40
2023-02-02T00:52:49.129Z,10.93
2023-02-02T00:55:16.971Z,10.93
2023-02-02T00:57:46.242Z,11.70
2023-02-02T01:00:16.696Z,12.13
2023-02-02T01:05:11.717Z,12.82
2023-02-02T01:07:38.595Z,12.73
2023-02-02T01:10:06.169Z,15.02
2023-02-02T01:12:32.811Z,13.57
2023-02-02T01:14:59.248Z,13.18
2023-02-02T01:17:26.652Z,14.88
2023-02-02T01:19:53.062Z,12.23
2023-02-02T01:22:19.595Z,7.82
2023-02-02T01:24:46.042Z,10.70
2023-02-02T01:27:12.505Z,12.52
2023-02-02T01:29:38.926Z,16.20
2023-02-02T01:32:05.425Z,14.48
2023-02-02T01:34:31.963Z,16.80
2023-02-02T01:36:58.452Z,15.95
2023-02-02T01:39:24.993Z,13.00
2023-02-02T01:41:51.553Z,11.57
2023-02-02T01:44:52.076Z,12.75
2023-02-02T01:49:50.140Z,12.43
2023-02-02T01:52:19.358Z,17.02
2023-02-02T01:54:52.074Z,19.77
2023-02-02T01:57:28.890Z,15.32
2023-02-02T01:59:58.150Z,13.57
2023-02-02T02:02:25.839Z,15.90
2023-02-02T02:04:52.463Z,13.98
2023-02-02T02:07:18.990Z,16.98
2023-02-02T02:09:45.407Z,18.48
2023-02-02T02:12:15.343Z,15.98
2023-02-02T02:15:03.469Z,16.65
2023-02-02T02:17:51.362Z,17.35
2023-02-02T02:20:59.400Z,18.10
2023-02-02T02:24:03.175Z,15.98
2023-02-02T02:26:57.661Z,14.43
2023-02-02T02:29:35.919Z,13.90
2023-02-02T02:32:30.008Z,18.08
2023-02-02T02:35:12.437Z,16.77
2023-02-02T02:37:57.183Z,14.15
2023-02-02T02:40:31.963Z,13.27
2023-02-02T02:43:03.501Z,16.77
2023-02-02T02:45:32.087Z,16.13
2023-02-02T02:47:59.013Z,13.07
2023-02-02T02:50:25.734Z,11.35
2023-02-02T02:53:06.156Z,13.27
2023-02-02T02:58:19.972Z,11.65
2023-02-02T03:03:20.986Z,11.45
2023-02-02T03:05:50.043Z,12.60
2023-02-02T03:08:40.837Z,12.10
2023-02-02T03:11:10.607Z,13.40
2023-02-02T03:13:37.430Z,15.32
2023-02-02T03:16:04.413Z,12.75
2023-02-02T03:18:32.818Z,14.13
2023-02-02T03:20:59.744Z,16.40
2023-02-02T03:23:26.538Z,12.02
2023-02-02T03:25:53.864Z,17.40
2023-02-02T03:28:23.139Z,13.07
2023-02-02T03:30:50.535Z,17.45
2023-02-02T03:33:18.607Z,12.85
2023-02-02T03:35:45.275Z,12.05
2023-02-02T03:38:12.656Z,15.27
2023-02-02T03:40:39.887Z,11.77
2023-02-02T03:45:46.645Z,12.43
2023-02-02T03:48:13.145Z,15.23
2023-02-02T03:50:39.564Z,13.80
2023-02-02T03:53:06.057Z,12.50
2023-02-02T03:55:32.518Z,13.95
2023-02-02T03:57:58.915Z,12.90
2023-02-02T04:00:25.304Z,11.43
2023-02-02T04:02:51.754Z,12.55
2023-02-02T04:05:18.323Z,14.00
2023-02-02T04:07:44.822Z,14.98
2023-02-02T04:10:11.864Z,13.27
2023-02-02T04:12:38.315Z,14.63
2023-02-02T04:15:05.320Z,14.43
2023-02-02T04:17:31.965Z,15.35
2023-02-02T04:19:58.595Z,13.57
2023-02-02T04:22:25.826Z,15.38
2023-02-02T04:24:52.299Z,13.05
2023-02-02T04:27:18.863Z,14.15
2023-02-02T04:29:45.388Z,13.63
2023-02-02T04:32:11.807Z,15.63
2023-02-02T04:34:38.254Z,12.70
2023-02-02T04:37:04.685Z,13.95
2023-02-02T04:39:31.247Z,15.30
2023-02-02T04:41:57.971Z,13.00
2023-02-02T04:44:24.420Z,12.95
2023-02-02T04:46:50.809Z,14.25
2023-02-02T04:49:17.364Z,12.50
2023-02-02T04:51:44.128Z,14.00
2023-02-02T04:54:10.560Z,14.40
2023-02-02T04:56:37.003Z,13.77
2023-02-02T04:59:03.429Z,14.80
2023-02-02T05:01:30.795Z,12.80
2023-02-02T05:03:57.895Z,11.43
2023-02-02T05:06:24.592Z,13.95
2023-02-02T05:08:51.119Z,15.45
2023-02-02T05:11:20.201Z,12.43
2023-02-02T05:13:48.486Z,13.93
2023-02-02T05:16:15.307Z,13.32
2023-02-02T05:18:42.621Z,14.70
2023-02-02T05:21:09.503Z,12.88
2023-02-02T05:23:35.917Z,15.75
2023-02-02T05:26:02.370Z,16.77
2023-02-02T05:28:29.457Z,12.45
2023-02-02T05:30:55.985Z,14.65
2023-02-02T05:33:22.419Z,14.50
2023-02-02T05:35:49.521Z,12.43
2023-02-02T05:38:16.493Z,13.73
2023-02-02T05:40:42.950Z,15.43
2023-02-02T05:43:09.431Z,16.95
2023-02-02T05:45:35.927Z,15.90
2023-02-02T05:48:02.391Z,15.93
2023-02-02T05:50:28.807Z,15.05
2023-02-02T05:52:55.247Z,14.57
2023-02-02T05:55:22.960Z,17.63
2023-02-02T05:57:49.535Z,13.65
2023-02-02T06:00:16.372Z,15.00
2023-02-02T06:02:42.789Z,12.75
2023-02-02T06:05:09.518Z,17.38
2023-02-02T06:07:35.935Z,17.15
2023-02-02T06:10:02.460Z,16.95
2023-02-02T06:12:30.005Z,15.77
2023-02-02T06:14:56.457Z,16.67
2023-02-02T06:17:22.870Z,14.98
2023-02-02T06:19:49.282Z,16.90
2023-02-02T06:22:15.712Z,12.52
2023-02-02T06:24:42.166Z,14.27
2023-02-02T06:27:08.625Z,14.75
2023-02-02T06:29:35.061Z,14.93
2023-02-02T06:32:01.562Z,13.23
2023-02-02T06:34:27.969Z,13.27
2023-02-02T06:36:54.395Z,16.63
2023-02-02T06:39:20.825Z,16.50
2023-02-02T06:41:48.278Z,11.68
2023-02-02T06:44:15.446Z,11.27
2023-02-02T06:46:42.505Z,10.85
2023-02-02T06:49:09.158Z,10.13
2023-02-02T06:51:35.673Z,12.93
2023-02-02T06:54:03.881Z,12.30
2023-02-02T06:56:30.529Z,15.55
2023-02-02T06:58:56.963Z,13.10
2023-02-02T07:01:23.481Z,14.50
2023-02-02T07:03:51.301Z,11.38
2023-02-02T07:06:23.831Z,16.38
2023-02-02T07:09:02.037Z,10.95
2023-02-02T07:11:29.785Z,10.85
2023-02-02T07:13:56.313Z,12.23
2023-02-02T07:16:22.813Z,13.55
2023-02-02T07:18:49.508Z,11.30
2023-02-02T07:21:19.103Z,14.52
2023-02-02T07:23:45.832Z,13.07
2023-02-02T07:26:14.081Z,11.48
2023-02-02T07:28:40.764Z,14.70
2023-02-02T07:31:26.686Z,12.88
2023-02-02T07:33:53.855Z,10.90
2023-02-02T07:36:21.842Z,11.50
2023-02-02T07:38:50.618Z,12.10
2023-02-02T07:41:17.360Z,16.60
2023-02-02T07:43:47.836Z,12.15
2023-02-02T07:48:40.972Z,14.43
2023-02-02T07:51:11.137Z,11.98
2023-02-02T07:53:37.723Z,12.55
2023-02-02T07:56:16.060Z,12.23
2023-02-02T07:58:43.148Z,11.25
2023-02-02T08:01:11.884Z,13.05
2023-02-02T08:03:39.023Z,14.52
2023-02-02T08:06:15.401Z,12.90
2023-02-02T08:08:42.021Z,12.77
2023-02-02T08:11:11.033Z,12.98
2023-02-02T08:13:37.850Z,12.65
2023-02-02T08:16:05.155Z,13.05
2023-02-02T08:18:31.598Z,12.43
2023-02-02T08:20:59.471Z,11.50
2023-02-02T08:23:26.286Z,11.68
2023-02-02T08:25:53.826Z,15.45
2023-02-02T08:28:20.311Z,13.90
2023-02-02T08:30:47.275Z,11.05
2023-02-02T08:33:13.948Z,8.98
2023-02-02T08:35:43.766Z,13.18
2023-02-02T08:38:10.510Z,8.80
2023-02-02T08:40:36.979Z,10.90
2023-02-02T08:43:06.689Z,11.10
2023-02-02T08:46:04.155Z,10.70
2023-02-02T08:48:23.424Z,13.13
2023-02-02T08:50:59.001Z,10.73
2023-02-02T08:53:26.647Z,11.45
2023-02-02T08:55:59.878Z,11.38
2023-02-02T08:58:26.914Z,11.27
2023-02-02T09:00:53.883Z,11.88
2023-02-02T09:03:20.573Z,14.30
2023-02-02T09:05:46.956Z,11.63
2023-02-02T09:08:13.413Z,17.05
2023-02-02T09:10:39.856Z,14.13
2023-02-02T09:13:06.250Z,15.70
2023-02-02T09:15:32.921Z,16.58
2023-02-02T09:17:59.357Z,15.70
2023-02-02T09:20:25.754Z,12.57
2023-02-02T09:22:55.587Z,15.95
2023-02-02T09:25:22.285Z,17.35
2023-02-02T09:27:48.842Z,14.20
2023-02-02T09:30:15.483Z,14.70
2023-02-02T09:32:41.895Z,9.75
2023-02-02T09:35:08.537Z,10.48
2023-02-02T09:37:35.366Z,11.27
2023-02-02T09:40:03.039Z,9.07
2023-02-02T09:42:32.518Z,6.70
2023-02-02T09:45:03.925Z,9.27
2023-02-02T09:47:40.232Z,10.82
2023-02-02T09:50:29.484Z,8.40
2023-02-02T09:53:08.817Z,9.82
2023-02-02T09:55:36.733Z,9.48
2023-02-02T09:58:31.217Z,6.88
2023-02-02T10:01:29.397Z,7.65
2023-02-02T10:04:08.938Z,8.05
2023-02-02T10:06:44.580Z,8.70
2023-02-02T10:09:35.852Z,9.35
2023-02-02T10:12:12.050Z,8.32
2023-02-02T10:14:51.025Z,6.57
2023-02-02T10:17:36.488Z,9.85
2023-02-02T10:20:17.526Z,9.57
2023-02-02T10:22:46.472Z,7.65
2023-02-02T10:25:15.371Z,6.95
2023-02-02T10:27:56.760Z,11.65
2023-02-02T10:30:39.308Z,10.45
2023-02-02T10:33:10.056Z,11.32
2023-02-02T10:35:50.499Z,7.05
2023-02-02T10:41:15.387Z,11.20
2023-02-02T10:43:48.120Z,11.43
2023-02-02T10:46:20.377Z,11.68
2023-02-02T10:48:48.667Z,9.55
2023-02-02T10:51:26.853Z,11.70
2023-02-02T10:54:05.274Z,7.97
2023-02-02T10:56:37.972Z,6.40
2023-02-02T10:59:12.928Z,8.85
2023-02-02T11:01:39.445Z,8.65
2023-02-02T11:04:25.071Z,9.95
2023-02-02T11:06:52.054Z,7.82
2023-02-02T11:09:24.837Z,7.80
2023-02-02T11:11:55.184Z,8.18
2023-02-02T11:14:39.265Z,7.72
2023-02-02T11:17:19.418Z,6.75
2023-02-02T11:19:45.860Z,5.93
2023-02-02T11:22:37.973Z,8.88
2023-02-02T11:25:26.331Z,8.52
2023-02-02T11:27:52.933Z,7.45
2023-02-02T11:30:22.999Z,11.52
2023-02-02T11:32:50.865Z,8.68
2023-02-02T11:35:21.115Z,8.77
2023-02-02T11:38:07.443Z,7.68
2023-02-02T11:41:17.092Z,8.75
2023-02-02T11:43:54.376Z,6.45
2023-02-02T11:46:24.426Z,8.57
2023-02-02T11:49:01.494Z,7.63
2023-02-02T11:51:29.764Z,8.82
2023-02-02T11:54:06.234Z,8.05
2023-02-02T11:56:36.691Z,6.70
2023-02-02T12:01:40.964Z,8.07
2023-02-02T12:04:13.669Z,15.48
2023-02-02T12:06:40.978Z,11.30
2023-02-02T12:09:23.170Z,18.83
2023-02-02T12:12:23.283Z,13.07
2023-02-02T12:15:00.788Z,17.30
2023-02-02T12:17:43.011Z,9.35
2023-02-02T12:20:42.973Z,8.75
2023-02-02T12:23:15.574Z,11.70
2023-02-02T12:26:22.649Z,7.53
2023-02-02T12:29:24.534Z,10.77
2023-02-02T12:32:00.328Z,10.27
2023-02-02T12:34:40.556Z,11.23
2023-02-02T12:37:27.358Z,9.57
2023-02-02T12:40:13.354Z,10.93
2023-02-02T12:42:51.846Z,8.80
2023-02-02T12:45:32.007Z,6.43
2023-02-02T12:48:18.500Z,9.60
2023-02-02T12:51:06.370Z,8.50
2023-02-02T12:53:48.020Z,6.82
2023-02-02T12:57:02.310Z,8.07
2023-02-02T13:00:14.617Z,7.18
2023-02-02T13:03:20.867Z,7.60
2023-02-02T13:06:06.050Z,10.57
2023-02-02T13:08:41.501Z,7.47
2023-02-02T13:11:31.289Z,7.25
2023-02-02T13:14:02.708Z,8.05
2023-02-02T13:16:31.937Z,9.65
2023-02-02T13:19:13.505Z,8.95
2023-02-02T13:21:42.275Z,8.68
2023-02-02T13:24:20.662Z,10.45
2023-02-02T13:26:48.477Z,7.60
2023-02-02T13:29:34.061Z,7.95
2023-02-02T13:32:30.678Z,8.13
2023-02-02T13:35:03.128Z,8.38
2023-02-02T13:38:10.551Z,8.77
2023-02-02T13:40:40.036Z,7.38
2023-02-02T13:43:25.331Z,7.43
2023-02-02T13:46:22.892Z,7.20
2023-02-02T13:48:52.474Z,7.00
2023-02-02T13:51:42.428Z,8.67
2023-02-02T13:54:14.855Z,6.85
2023-02-02T13:56:50.419Z,8.60
2023-02-02T13:59:29.038Z,7.30
2023-02-02T14:01:58.555Z,7.25
2023-02-02T14:04:29.179Z,8.80
2023-02-02T14:06:59.842Z,8.55
2023-02-02T14:09:29.882Z,8.13
2023-02-02T14:12:08.188Z,7.57
2023-02-02T14:14:38.954Z,7.43
2023-02-02T14:17:06.976Z,8.55
2023-02-02T14:19:33.637Z,8.52
2023-02-02T14:22:09.213Z,8.50
2023-02-02T14:24:35.647Z,8.77
2023-02-02T14:27:29.497Z,8.98
2023-02-02T14:29:56.058Z,7.95
2023-02-02T14:32:28.745Z,9.52
2023-02-02T14:35:18.737Z,7.78
2023-02-02T14:37:58.497Z,7.45
2023-02-02T14:40:53.536Z,8.52
2023-02-02T14:43:46.194Z,9.10
2023-02-02T14:46:12.923Z,8.73
2023-02-02T14:49:02.682Z,9.38
2023-02-02T14:51:32.919Z,7.77
2023-02-02T14:54:02.575Z,7.93
2023-02-02T14:56:50.995Z,6.97
2023-02-02T14:59:20.250Z,9.25
2023-02-02T15:01:57.697Z,8.20
2023-02-02T15:04:27.220Z,9.07
2023-02-02T15:06:54.095Z,9.57
2023-02-02T15:09:20.659Z,9.25
2023-02-02T15:12:01.129Z,8.57
2023-02-02T15:14:58.982Z,8.13
2023-02-02T15:17:41.716Z,10.10
2023-02-02T15:20:26.443Z,7.30
2023-02-02T15:23:02.522Z,9.27
2023-02-02T15:25:34.578Z,7.63
2023-02-02T15:28:39.297Z,8.73
2023-02-02T15:31:14.862Z,8.93
2023-02-02T15:33:49.522Z,8.38
2023-02-02T15:36:25.327Z,5.88
2023-02-02T15:38:54.785Z,7.68
2023-02-02T15:41:35.132Z,21.02
2023-02-02T15:46:34.336Z,12.85
2023-02-02T15:49:35.796Z,11.75
2023-02-02T15:52:19.615Z,10.63
2023-02-02T15:55:19.780Z,10.65
2023-02-02T15:57:46.215Z,10.88
2023-02-02T16:00:31.028Z,10.50
2023-02-02T16:03:11.363Z,12.15
2023-02-02T16:05:37.769Z,8.70
2023-02-02T16:08:15.494Z,10.25
2023-02-02T16:10:42.209Z,10.18
2023-02-02T16:13:25.205Z,10.30
2023-02-02T16:16:00.310Z,11.60
2023-02-02T16:18:27.670Z,9.82
2023-02-02T16:20:55.668Z,8.52
2023-02-02T16:23:31.152Z,9.27
2023-02-02T16:26:01.410Z,8.20
2023-02-02T16:28:28.572Z,9.27
2023-02-02T16:30:58.764Z,11.75
2023-02-02T16:33:40.891Z,8.23
2023-02-02T16:36:29.714Z,7.68
2023-02-02T16:38:58.016Z,8.40
2023-02-02T16:41:33.848Z,6.97
2023-02-02T16:44:37.335Z,7.43
2023-02-02T16:47:06.864Z,6.57
2023-02-02T16:49:34.710Z,8.03
2023-02-02T16:52:14.574Z,10.38
2023-02-02T16:54:49.372Z,10.25
2023-02-02T16:57:22.887Z,6.50
2023-02-02T16:59:55.623Z,7.97
2023-02-02T17:02:40.154Z,11.23
2023-02-02T17:05:25.688Z,8.55
2023-02-02T17:08:00.740Z,9.30
2023-02-02T17:10:34.295Z,10.68
2023-02-02T17:13:02.161Z,11.02
2023-02-02T17:15:34.943Z,11.95
2023-02-02T17:18:03.295Z,11.75
2023-02-02T17:20:30.531Z,14.32
2023-02-02T17:23:09.824Z,12.98
2023-02-02T17:25:40.619Z,13.25
2023-02-02T17:28:11.324Z,14.18
2023-02-02T17:30:43.935Z,13.85
2023-02-02T17:33:15.154Z,12.80
2023-02-02T17:35:53.787Z,11.10
2023-02-02T17:38:22.516Z,10.48
2023-02-02T17:40:49.923Z,8.57
2023-02-02T17:43:16.461Z,13.02
2023-02-02T17:45:43.492Z,10.95
2023-02-02T17:48:12.532Z,10.70
2023-02-02T17:50:39.944Z,9.98
2023-02-02T17:53:06.583Z,9.70
2023-02-02T17:55:37.261Z,10.02
2023-02-02T17:58:03.928Z,10.43
2023-02-02T18:00:31.611Z,21.58
2023-02-02T18:03:13.890Z,16.77
2023-02-02T18:05:43.217Z,8.60
2023-02-02T18:08:12.525Z,11.88
2023-02-02T18:10:39.844Z,9.63
2023-02-02T18:13:06.563Z,10.98
2023-02-02T18:15:35.075Z,14.20
2023-02-02T18:18:01.990Z,14.02
2023-02-02T18:20:28.534Z,13.35
2023-02-02T18:22:55.003Z,13.57
2023-02-02T18:25:21.451Z,14.57
2023-02-02T18:27:50.630Z,8.88
2023-02-02T18:30:17.070Z,14.70
2023-02-02T18:32:43.730Z,11.60
2023-02-02T18:35:12.081Z,10.98
2023-02-02T18:37:39.976Z,11.20
2023-02-02T18:40:07.996Z,12.88
2023-02-02T18:42:35.853Z,11.23
2023-02-02T18:45:03.532Z,13.32
2023-02-02T18:47:29.989Z,11.85
2023-02-02T18:49:56.423Z,11.82
2023-02-02T18:52:22.962Z,13.10
2023-02-02T18:54:49.801Z,11.60
2023-02-02T18:57:16.801Z,12.98
2023-02-02T18:59:44.130Z,11.75
2023-02-02T19:02:15.091Z,10.68
2023-02-02T19:05:04.886Z,9.40
2023-02-02T19:07:50.907Z,10.55
2023-02-02T19:10:18.115Z,10.68
2023-02-02T19:12:54.123Z,16.90
2023-02-02T19:15:20.889Z,10.88
2023-02-02T19:17:50.587Z,14.32
2023-02-02T19:20:30.445Z,8.95
2023-02-02T19:23:06.766Z,11.25
2023-02-02T19:25:33.248Z,11.25
2023-02-02T19:28:08.943Z,7.75
2023-02-02T19:30:35.372Z,9.88
2023-02-02T19:33:02.158Z,7.18
2023-02-02T19:35:29.416Z,7.47
2023-02-02T19:38:02.398Z,9.77
2023-02-02T19:40:29.051Z,7.72
2023-02-02T19:43:10.813Z,10.23
2023-02-02T19:45:39.572Z,7.93
2023-02-02T19:48:18.063Z,8.15
2023-02-02T19:50:44.998Z,8.23
2023-02-02T19:53:19.885Z,13.07
2023-02-02T19:55:47.107Z,8.20
2023-02-02T19:58:18.331Z,9.48
2023-02-02T20:00:46.889Z,9.32
2023-02-02T20:03:22.609Z,8.50
2023-02-02T20:05:51.364Z,10.27
2023-02-02T20:08:23.960Z,10.43
2023-02-02T20:10:52.004Z,10.27
2023-02-02T20:13:32.950Z,9.60
2023-02-02T20:16:04.314Z,10.70
2023-02-02T20:18:48.663Z,8.75
2023-02-02T20:21:23.683Z,9.15
2023-02-02T20:23:50.138Z,11.05
2023-02-02T20:26:36.530Z,11.35
2023-02-02T20:29:24.486Z,8.85
2023-02-02T20:31:53.057Z,8.13
2023-02-02T20:34:35.967Z,8.27
2023-02-02T20:37:22.772Z,11.25
2023-02-02T20:39:54.876Z,10.55
2023-02-02T20:42:21.688Z,11.13
2023-02-02T20:44:48.761Z,8.48
2023-02-02T20:47:15.230Z,12.00
2023-02-02T20:49:41.762Z,10.55
2023-02-02T20:52:12.017Z,10.45
2023-02-02T20:54:39.635Z,10.90
2023-02-02T20:57:06.615Z,10.50
2023-02-02T20:59:33.093Z,10.38
2023-02-02T21:02:00.026Z,9.93
2023-02-02T21:04:26.496Z,11.10
2023-02-02T21:06:55.075Z,10.07
2023-02-02T21:09:21.509Z,11.48
2023-02-02T21:11:47.966Z,12.13
2023-02-02T21:14:14.930Z,10.55
2023-02-02T21:16:41.468Z,9.43
2023-02-02T21:19:07.949Z,11.30
2023-02-02T21:21:34.484Z,8.75
2023-02-02T21:24:01.083Z,10.38
2023-02-02T21:26:30.465Z,10.23
2023-02-02T21:28:58.355Z,11.88
2023-02-02T21:31:25.153Z,11.27
2023-02-02T21:33:51.770Z,10.85
2023-02-02T21:36:28.509Z,13.60
2023-02-02T21:39:23.382Z,10.27
2023-02-02T21:42:00.890Z,10.82
2023-02-02T21:44:27.515Z,11.73
2023-02-02T21:46:53.967Z,14.05
2023-02-02T21:49:26.190Z,11.27
2023-02-02T21:51:57.445Z,12.18
2023-02-02T21:54:26.893Z,14.02
2023-02-02T21:56:54.282Z,16.48
2023-02-02T21:59:23.072Z,14.85
2023-02-02T22:01:51.987Z,9.65
2023-02-02T22:04:28.496Z,11.32
2023-02-02T22:07:12.551Z,12.60
2023-02-02T22:09:41.309Z,12.30
2023-02-02T22:12:23.200Z,12.98
2023-02-02T22:14:57.683Z,10.40
2023-02-02T22:17:40.230Z,9.85
2023-02-02T22:20:15.611Z,12.25
2023-02-02T22:22:45.556Z,9.13
2023-02-02T22:25:18.378Z,9.98
2023-02-02T22:27:51.568Z,7.75
2023-02-02T22:30:28.657Z,9.57
2023-02-02T22:32:55.597Z,8.13
2023-02-02T22:35:22.192Z,13.88
2023-02-02T22:37:48.690Z,10.48
2023-02-02T22:40:16.455Z,9.27
2023-02-02T22:42:43.469Z,12.80
2023-02-02T22:45:10.066Z,10.55
2023-02-02T22:47:36.491Z,12.93
2023-02-02T22:50:03.095Z,9.25
2023-02-02T22:52:29.520Z,10.05
2023-02-02T22:54:55.898Z,10.27
2023-02-02T22:57:22.309Z,10.13
2023-02-02T22:59:48.691Z,11.25
2023-02-02T23:02:15.118Z,11.23
2023-02-02T23:04:41.561Z,8.55
2023-02-02T23:07:08.260Z,7.43
2023-02-02T23:09:34.773Z,10.88
2023-02-02T23:12:01.247Z,10.35
2023-02-02T23:14:27.661Z,10.75
2023-02-02T23:16:54.077Z,10.48
2023-02-02T23:19:20.478Z,9.25
2023-02-02T23:21:46.999Z,8.30
2023-02-02T23:24:13.407Z,9.60
2023-02-02T23:26:39.786Z,9.18
2023-02-02T23:29:06.234Z,9.70
2023-02-02T23:31:32.832Z,10.68
2023-02-02T23:33:59.354Z,8.52
2023-02-02T23:36:25.763Z,10.93
2023-02-02T23:38:52.218Z,7.65
2023-02-02T23:41:19.408Z,6.88
2023-02-02T23:43:45.821Z,8.43
2023-02-02T23:46:13.301Z,6.10
2023-02-02T23:48:39.829Z,8.25
2023-02-02T23:51:06.323Z,6.32
2023-02-02T23:53:32.738Z,8.05
2023-02-02T23:55:59.124Z,7.18
2023-02-02T23:58:25.640Z,5.75
